createdAt,value
2023-01-03T00:04:29.106Z,100.00
2023-01-03T00:09:30.946Z,100.00
2023-01-03T00:14:35.547Z,100.00
2023-01-03T00:19:43.251Z,100.00
2023-01-03T00:24:46.437Z,100.00
2023-01-03T00:29:48.077Z,100.00
2023-01-03T00:34:49.711Z,100.00
2023-01-03T00:39:51.365Z,100.00
2023-01-03T00:44:52.963Z,100.00
2023-01-03T00:49:54.841Z,100.00
2023-01-03T00:54:56.649Z,100.00
2023-01-03T00:59:58.249Z,100.00
2023-01-03T01:05:00.166Z,100.00
2023-01-03T01:10:02.319Z,100.00
2023-01-03T01:15:04.489Z,100.00
2023-01-03T01:20:07.284Z,100.00
2023-01-03T01:25:08.946Z,100.00
2023-01-03T01:30:10.614Z,100.00
2023-01-03T01:35:12.220Z,100.00
2023-01-03T01:40:13.924Z,100.00
2023-01-03T01:45:15.584Z,100.00
2023-01-03T01:50:29.361Z,100.00
2023-01-03T01:55:45.169Z,100.00
2023-01-03T02:00:46.786Z,100.00
2023-01-03T02:05:53.630Z,100.00
2023-01-03T02:11:15.944Z,100.00
2023-01-03T02:16:35.884Z,100.00
2023-01-03T02:21:46.504Z,100.00
2023-01-03T02:27:13.151Z,100.00
2023-01-03T02:32:43.165Z,100.00
2023-01-03T02:37:54.165Z,100.00
2023-01-03T02:43:17.075Z,100.00
2023-01-03T02:48:31.116Z,100.00
2023-01-03T02:53:42.011Z,100.00
2023-01-03T02:58:47.880Z,100.00
2023-01-03T03:03:52.526Z,100.00
2023-01-03T03:08:54.354Z,100.00
2023-01-03T03:14:22.531Z,100.00
2023-01-03T03:19:54.289Z,100.00
2023-01-03T03:24:59.502Z,100.00
2023-01-03T03:30:03.945Z,100.00
2023-01-03T03:35:10.715Z,100.00
2023-01-03T03:40:32.572Z,100.00
2023-01-03T03:46:21.784Z,100.00
2023-01-03T03:51:28.819Z,100.00
2023-01-03T03:56:32.756Z,100.00
2023-01-03T04:01:37.848Z,100.00
2023-01-03T04:06:49.175Z,100.00
2023-01-03T04:11:50.921Z,100.00
2023-01-03T04:16:52.573Z,100.00
2023-01-03T04:21:54.226Z,100.00
2023-01-03T04:26:56.059Z,100.00
2023-01-03T04:31:57.715Z,100.00
2023-01-03T04:36:59.344Z,100.00
2023-01-03T04:42:01.574Z,100.00
2023-01-03T04:47:03.517Z,100.00
2023-01-03T04:52:05.230Z,100.00
2023-01-03T04:57:07.512Z,100.00
2023-01-03T05:02:09.233Z,100.00
2023-01-03T05:07:11.059Z,100.00
2023-01-03T05:12:12.838Z,100.00
2023-01-03T05:17:14.435Z,100.00
2023-01-03T05:22:34.759Z,100.00
2023-01-03T05:27:36.431Z,100.00
2023-01-03T05:32:37.994Z,100.00
2023-01-03T05:37:39.747Z,100.00
2023-01-03T05:42:41.357Z,100.00
2023-01-03T05:47:42.960Z,100.00
2023-01-03T05:52:44.563Z,100.00
2023-01-03T05:57:47.331Z,100.00
2023-01-03T06:02:49.225Z,100.00
2023-01-03T06:07:50.880Z,100.00
2023-01-03T06:12:52.519Z,100.00
2023-01-03T06:18:02.943Z,100.00
2023-01-03T06:23:04.543Z,100.00
2023-01-03T06:28:06.188Z,100.00
2023-01-03T06:33:08.146Z,100.00
2023-01-03T06:38:09.988Z,100.00
2023-01-03T06:43:11.617Z,100.00
2023-01-03T06:48:31.903Z,100.00
2023-01-03T06:53:37.570Z,100.00
2023-01-03T06:58:39.213Z,100.00
2023-01-03T07:03:40.817Z,100.00
2023-01-03T07:08:47.848Z,100.00
2023-01-03T07:13:59.607Z,100.00
2023-01-03T07:19:02.276Z,100.00
2023-01-03T07:24:05.855Z,100.00
2023-01-03T07:29:09.548Z,100.00
2023-01-03T07:34:11.202Z,100.00
2023-01-03T07:39:12.858Z,100.00
2023-01-03T07:44:14.454Z,100.00
2023-01-03T07:49:16.077Z,100.00
2023-01-03T07:54:17.679Z,100.00
2023-01-03T07:59:19.843Z,100.00
2023-01-03T08:04:21.726Z,100.00
2023-01-03T08:09:43.573Z,100.00
2023-01-03T08:14:45.355Z,100.00
2023-01-03T08:19:46.969Z,100.00
2023-01-03T08:24:48.584Z,100.00
2023-01-03T08:29:50.254Z,100.00
2023-01-03T08:34:52.131Z,100.00
2023-01-03T08:40:01.598Z,100.00
2023-01-03T08:45:09.204Z,100.00
2023-01-03T08:50:12.486Z,100.00
2023-01-03T08:55:14.178Z,100.00
2023-01-03T09:00:16.038Z,100.00
2023-01-03T09:05:17.859Z,100.00
2023-01-03T09:10:19.529Z,100.00
2023-01-03T09:15:21.216Z,100.00
2023-01-03T09:20:22.924Z,100.00
2023-01-03T09:25:24.800Z,100.00
2023-01-03T09:30:26.461Z,100.00
2023-01-03T09:35:28.256Z,100.00
2023-01-03T09:40:31.577Z,100.00
2023-01-03T09:45:34.850Z,100.00
2023-01-03T09:51:05.846Z,100.00
2023-01-03T09:56:19.528Z,100.00
2023-01-03T10:01:51.428Z,100.00
2023-01-03T10:07:14.583Z,100.00
2023-01-03T10:12:43.779Z,100.00
2023-01-03T10:18:09.984Z,100.00
2023-01-03T10:23:11.950Z,100.00
2023-01-03T10:28:21.416Z,100.00
2023-01-03T10:33:33.061Z,100.00
2023-01-03T10:38:43.675Z,100.00
2023-01-03T10:44:00.602Z,100.00
2023-01-03T10:49:28.312Z,100.00
2023-01-03T10:54:40.419Z,100.00
2023-01-03T10:59:49.325Z,99.55
2023-01-03T11:05:12.260Z,98.89
2023-01-03T11:10:18.755Z,99.38
2023-01-03T11:15:42.522Z,99.22
2023-01-03T11:20:57.791Z,98.68
2023-01-03T11:26:05.324Z,99.31
2023-01-03T11:31:17.346Z,97.99
2023-01-03T11:36:22.588Z,98.55
2023-01-03T11:41:33.611Z,98.47
2023-01-03T11:47:07.119Z,98.27
2023-01-03T11:52:27.975Z,98.08
2023-01-03T11:58:05.847Z,98.56
2023-01-03T12:03:31.946Z,98.06
2023-01-03T12:09:02.251Z,98.62
2023-01-03T12:14:19.530Z,97.39
2023-01-03T12:19:51.419Z,97.47
2023-01-03T12:25:07.156Z,97.55
2023-01-03T12:30:24.905Z,97.50
2023-01-03T12:35:32.975Z,98.26
2023-01-03T12:41:07.893Z,98.48
2023-01-03T12:46:15.432Z,98.30
2023-01-03T12:51:20.719Z,98.20
2023-01-03T12:56:55.659Z,98.83
2023-01-03T13:02:00.810Z,98.63
2023-01-03T13:07:33.400Z,98.74
2023-01-03T13:12:39.108Z,99.23
2023-01-03T13:17:46.419Z,99.28
2023-01-03T13:23:01.739Z,99.48
2023-01-03T13:28:18.737Z,99.95
2023-01-03T13:33:20.975Z,99.79
2023-01-03T13:38:37.108Z,99.59
2023-01-03T13:43:40.257Z,99.82
2023-01-03T13:48:53.877Z,99.82
2023-01-03T13:54:18.654Z,99.43
2023-01-03T13:59:42.886Z,99.30
2023-01-03T14:04:52.990Z,99.51
2023-01-03T14:10:01.187Z,99.35
2023-01-03T14:15:25.004Z,99.08
2023-01-03T14:20:34.680Z,99.09
2023-01-03T14:25:39.384Z,99.52
2023-01-03T14:30:41.355Z,99.71
2023-01-03T14:35:44.605Z,99.76
2023-01-03T14:40:48.333Z,99.84
2023-01-03T14:45:55.758Z,100.00
2023-01-03T14:51:01.483Z,100.00
2023-01-03T14:56:03.503Z,100.00
2023-01-03T15:01:08.647Z,100.00
2023-01-03T15:06:21.405Z,100.00
2023-01-03T15:11:33.174Z,100.00
2023-01-03T15:16:38.138Z,99.95
2023-01-03T15:21:41.469Z,100.00
2023-01-03T15:26:51.335Z,100.00
2023-01-03T15:31:57.824Z,100.00
2023-01-03T15:37:00.942Z,100.00
2023-01-03T15:47:43.877Z,100.00
2023-01-03T15:52:48.976Z,100.00
2023-01-03T15:57:52.603Z,100.00
2023-01-03T16:02:54.382Z,100.00
2023-01-03T16:07:56.068Z,100.00
2023-01-03T16:12:57.727Z,100.00
2023-01-03T16:17:59.366Z,100.00
2023-01-03T16:23:02.021Z,100.00
2023-01-03T16:28:10.201Z,100.00
2023-01-03T16:33:21.029Z,100.00
2023-01-03T16:38:25.596Z,100.00
2023-01-03T16:43:27.623Z,100.00
2023-01-03T16:48:40.410Z,100.00
2023-01-03T16:53:42.010Z,100.00
2023-01-03T16:58:43.687Z,100.00
2023-01-03T17:03:45.891Z,100.00
2023-01-03T17:08:47.624Z,100.00
2023-01-03T17:13:49.623Z,100.00
2023-01-03T17:18:53.422Z,100.00
2023-01-03T17:24:00.759Z,100.00
2023-01-03T17:29:04.729Z,100.00
2023-01-03T17:34:28.048Z,100.00
2023-01-03T17:39:29.851Z,100.00
2023-01-03T17:44:31.455Z,100.00
2023-01-03T17:49:33.090Z,100.00
2023-01-03T17:54:40.465Z,100.00
2023-01-03T17:59:42.130Z,100.00
2023-01-03T18:05:14.138Z,100.00
2023-01-03T18:10:07.603Z,100.00
2023-01-03T18:15:21.351Z,100.00
2023-01-03T18:20:23.180Z,100.00
2023-01-03T18:25:25.904Z,100.00
2023-01-03T18:30:27.796Z,100.00
2023-01-03T18:35:37.249Z,100.00
2023-01-03T18:40:40.906Z,100.00
2023-01-03T18:45:42.680Z,100.00
2023-01-03T18:50:49.402Z,100.00
2023-01-03T18:55:53.556Z,100.00
2023-01-03T19:00:55.284Z,100.00
2023-01-03T19:05:59.344Z,100.00
2023-01-03T19:11:07.573Z,100.00
2023-01-03T19:16:09.315Z,100.00
2023-01-03T19:21:14.485Z,100.00
2023-01-03T19:26:27.283Z,100.00
2023-01-03T19:31:39.231Z,100.00
2023-01-03T19:36:41.079Z,100.00
2023-01-03T19:42:07.769Z,100.00
2023-01-03T19:47:17.825Z,100.00
2023-01-03T19:52:19.412Z,100.00
2023-01-03T19:57:24.709Z,100.00
2023-01-03T20:02:32.390Z,100.00
2023-01-03T20:07:34.287Z,100.00
2023-01-03T20:12:35.937Z,100.00
2023-01-03T20:17:37.534Z,100.00
2023-01-03T20:28:02.083Z,100.00
2023-01-03T20:33:04.064Z,100.00
2023-01-03T20:38:05.690Z,100.00
2023-01-03T20:43:13.581Z,100.00
2023-01-03T20:48:24.729Z,100.00
2023-01-03T20:53:27.541Z,100.00
2023-01-03T20:58:29.354Z,100.00
2023-01-03T21:03:31.053Z,100.00
2023-01-03T21:08:51.309Z,100.00
2023-01-03T21:13:53.607Z,100.00
2023-01-03T21:18:55.818Z,100.00
2023-01-03T21:23:57.518Z,100.00
2023-01-03T21:28:59.724Z,100.00
2023-01-03T21:34:03.136Z,100.00
2023-01-03T21:39:05.017Z,100.00
2023-01-03T21:44:07.855Z,100.00
2023-01-03T21:49:09.519Z,100.00
2023-01-03T21:54:11.853Z,100.00
2023-01-03T21:59:15.688Z,100.00
2023-01-03T22:04:17.385Z,100.00
2023-01-03T22:09:38.061Z,100.00
2023-01-03T22:14:39.929Z,100.00
2023-01-03T22:19:41.996Z,100.00
2023-01-03T22:24:43.866Z,100.00
2023-01-03T22:29:45.497Z,100.00
2023-01-03T22:34:47.101Z,100.00
2023-01-03T22:39:48.764Z,100.00
2023-01-03T22:44:50.408Z,100.00
2023-01-03T22:49:52.059Z,100.00
2023-01-03T22:54:53.657Z,100.00
2023-01-03T22:59:55.297Z,100.00
2023-01-03T23:04:57.122Z,100.00
2023-01-03T23:09:58.735Z,100.00
2023-01-03T23:15:00.325Z,100.00
2023-01-03T23:20:02.175Z,100.00
2023-01-03T23:25:03.942Z,100.00
2023-01-03T23:30:06.159Z,100.00
2023-01-03T23:35:08.950Z,100.00
2023-01-03T23:40:11.198Z,100.00
2023-01-03T23:45:12.883Z,100.00
2023-01-03T23:50:14.515Z,100.00
2023-01-03T23:55:16.191Z,100.00
